sensor_id;sensor_type;location;lat;lon;timestamp;P1;durP1;ratioP1;P2;durP2;ratioP2
20093;SDS011;10206;48.012;10.030;2022-08-03T00:01:43;3.13;;;2.50;;
20093;SDS011;10206;48.012;10.030;2022-08-03T00:04:09;5.07;;;2.67;;
20093;SDS011;10206;48.012;10.030;2022-08-03T00:06:36;3.30;;;2.47;;
20093;SDS011;10206;48.012;10.030;2022-08-03T00:09:03;3.50;;;3.20;;
20093;SDS011;10206;48.012;10.030;2022-08-03T00:11:29;3.10;;;2.80;;
20093;SDS011;10206;48.012;10.030;2022-08-03T00:13:56;3.25;;;2.78;;
20093;SDS011;10206;48.012;10.030;2022-08-03T00:16:22;2.75;;;2.55;;
20093;SDS011;10206;48.012;10.030;2022-08-03T00:18:49;3.72;;;3.00;;
20093;SDS011;10206;48.012;10.030;2022-08-03T00:21:15;3.15;;;2.85;;
20093;SDS011;10206;48.012;10.030;2022-08-03T00:23:42;3.25;;;2.63;;
20093;SDS011;10206;48.012;10.030;2022-08-03T00:26:08;4.22;;;2.70;;
20093;SDS011;10206;48.012;10.030;2022-08-03T00:28:34;2.75;;;2.55;;
20093;SDS011;10206;48.012;10.030;2022-08-03T00:31:00;2.67;;;2.45;;
20093;SDS011;10206;48.012;10.030;2022-08-03T00:33:26;4.18;;;2.60;;
20093;SDS011;10206;48.012;10.030;2022-08-03T00:35:52;5.47;;;2.60;;
20093;SDS011;10206;48.012;10.030;2022-08-03T00:38:19;3.67;;;2.80;;
20093;SDS011;10206;48.012;10.030;2022-08-03T00:40:45;2.80;;;2.60;;
20093;SDS011;10206;48.012;10.030;2022-08-03T00:43:11;3.10;;;2.38;;
20093;SDS011;10206;48.012;10.030;2022-08-03T00:45:38;2.70;;;2.50;;
20093;SDS011;10206;48.012;10.030;2022-08-03T00:48:06;5.78;;;2.42;;
20093;SDS011;10206;48.012;10.030;2022-08-03T00:50:35;3.92;;;2.78;;
20093;SDS011;10206;48.012;10.030;2022-08-03T00:53:06;2.95;;;2.55;;
20093;SDS011;10206;48.012;10.030;2022-08-03T00:55:35;3.63;;;2.58;;
20093;SDS011;10206;48.012;10.030;2022-08-03T00:58:02;5.18;;;2.60;;
20093;SDS011;10206;48.012;10.030;2022-08-03T01:00:31;3.00;;;2.70;;
20093;SDS011;10206;48.012;10.030;2022-08-03T01:02:59;2.35;;;2.17;;
20093;SDS011;10206;48.012;10.030;2022-08-03T01:05:26;4.68;;;2.50;;
20093;SDS011;10206;48.012;10.030;2022-08-03T01:08:01;3.65;;;2.47;;
20093;SDS011;10206;48.012;10.030;2022-08-03T01:11:09;3.97;;;2.50;;
20093;SDS011;10206;48.012;10.030;2022-08-03T01:22:06;2.42;;;2.22;;
20093;SDS011;10206;48.012;10.030;2022-08-03T01:30:30;4.63;;;2.40;;
20093;SDS011;10206;48.012;10.030;2022-08-03T01:33:05;2.95;;;2.75;;
20093;SDS011;10206;48.012;10.030;2022-08-03T01:35:44;4.45;;;2.58;;
20093;SDS011;10206;48.012;10.030;2022-08-03T01:38:28;2.50;;;2.30;;
20093;SDS011;10206;48.012;10.030;2022-08-03T01:41:01;2.80;;;2.60;;
20093;SDS011;10206;48.012;10.030;2022-08-03T01:43:32;2.70;;;2.50;;
20093;SDS011;10206;48.012;10.030;2022-08-03T01:46:00;6.43;;;2.88;;
20093;SDS011;10206;48.012;10.030;2022-08-03T01:48:29;2.78;;;2.58;;
20093;SDS011;10206;48.012;10.030;2022-08-03T01:50:57;3.22;;;2.47;;
20093;SDS011;10206;48.012;10.030;2022-08-03T01:53:24;5.30;;;2.80;;
20093;SDS011;10206;48.012;10.030;2022-08-03T01:55:53;2.80;;;2.60;;
20093;SDS011;10206;48.012;10.030;2022-08-03T01:58:21;3.92;;;2.70;;
20093;SDS011;10206;48.012;10.030;2022-08-03T02:00:51;3.10;;;2.80;;
20093;SDS011;10206;48.012;10.030;2022-08-03T02:03:21;3.28;;;2.97;;
20093;SDS011;10206;48.012;10.030;2022-08-03T02:05:49;4.03;;;2.88;;
20093;SDS011;10206;48.012;10.030;2022-08-03T02:08:17;2.92;;;2.67;;
20093;SDS011;10206;48.012;10.030;2022-08-03T02:10:44;4.35;;;2.80;;
20093;SDS011;10206;48.012;10.030;2022-08-03T02:13:12;2.60;;;2.40;;
20093;SDS011;10206;48.012;10.030;2022-08-03T02:15:40;7.93;;;2.60;;
20093;SDS011;10206;48.012;10.030;2022-08-03T02:18:08;2.80;;;2.55;;
20093;SDS011;10206;48.012;10.030;2022-08-03T02:20:36;3.97;;;2.80;;
20093;SDS011;10206;48.012;10.030;2022-08-03T02:23:03;2.97;;;2.60;;
20093;SDS011;10206;48.012;10.030;2022-08-03T02:25:31;3.28;;;2.97;;
20093;SDS011;10206;48.012;10.030;2022-08-03T02:28:10;4.15;;;2.90;;
20093;SDS011;10206;48.012;10.030;2022-08-03T02:30:40;2.60;;;2.40;;
20093;SDS011;10206;48.012;10.030;2022-08-03T02:33:11;3.85;;;2.70;;
20093;SDS011;10206;48.012;10.030;2022-08-03T02:35:41;2.63;;;2.30;;
20093;SDS011;10206;48.012;10.030;2022-08-03T02:38:09;4.05;;;2.65;;
20093;SDS011;10206;48.012;10.030;2022-08-03T02:40:37;4.00;;;2.80;;
20093;SDS011;10206;48.012;10.030;2022-08-03T02:43:06;2.67;;;2.45;;
20093;SDS011;10206;48.012;10.030;2022-08-03T02:45:37;2.85;;;2.65;;
20093;SDS011;10206;48.012;10.030;2022-08-03T02:48:08;3.38;;;2.40;;
20093;SDS011;10206;48.012;10.030;2022-08-03T02:50:35;3.13;;;2.55;;
20093;SDS011;10206;48.012;10.030;2022-08-03T02:53:02;2.78;;;2.40;;
20093;SDS011;10206;48.012;10.030;2022-08-03T02:55:30;3.20;;;2.90;;
20093;SDS011;10206;48.012;10.030;2022-08-03T02:57:59;3.75;;;2.83;;
20093;SDS011;10206;48.012;10.030;2022-08-03T03:00:26;2.60;;;2.35;;
20093;SDS011;10206;48.012;10.030;2022-08-03T03:02:57;3.97;;;2.50;;
20093;SDS011;10206;48.012;10.030;2022-08-03T03:05:24;2.95;;;2.58;;
20093;SDS011;10206;48.012;10.030;2022-08-03T03:07:51;3.30;;;2.53;;
20093;SDS011;10206;48.012;10.030;2022-08-03T03:10:19;3.85;;;2.40;;
20093;SDS011;10206;48.012;10.030;2022-08-03T03:12:47;2.55;;;2.35;;
20093;SDS011;10206;48.012;10.030;2022-08-03T03:15:19;3.78;;;2.45;;
20093;SDS011;10206;48.012;10.030;2022-08-03T03:17:47;2.67;;;2.30;;
20093;SDS011;10206;48.012;10.030;2022-08-03T03:20:15;2.75;;;2.55;;
20093;SDS011;10206;48.012;10.030;2022-08-03T03:22:41;2.80;;;2.30;;
20093;SDS011;10206;48.012;10.030;2022-08-03T03:25:09;2.83;;;2.60;;
20093;SDS011;10206;48.012;10.030;2022-08-03T03:27:36;3.42;;;2.70;;
20093;SDS011;10206;48.012;10.030;2022-08-03T03:30:03;3.50;;;2.35;;
20093;SDS011;10206;48.012;10.030;2022-08-03T03:32:30;3.78;;;2.85;;
20093;SDS011;10206;48.012;10.030;2022-08-03T03:34:56;3.00;;;2.63;;
20093;SDS011;10206;48.012;10.030;2022-08-03T03:37:23;3.67;;;2.75;;
20093;SDS011;10206;48.012;10.030;2022-08-03T03:39:53;3.10;;;2.80;;
20093;SDS011;10206;48.012;10.030;2022-08-03T03:42:19;6.30;;;2.80;;
20093;SDS011;10206;48.012;10.030;2022-08-03T03:44:47;3.40;;;3.08;;
20093;SDS011;10206;48.012;10.030;2022-08-03T03:47:13;2.83;;;2.60;;
20093;SDS011;10206;48.012;10.030;2022-08-03T03:49:39;2.97;;;2.67;;
20093;SDS011;10206;48.012;10.030;2022-08-03T03:52:06;4.93;;;2.93;;
20093;SDS011;10206;48.012;10.030;2022-08-03T03:54:51;3.13;;;2.93;;
20093;SDS011;10206;48.012;10.030;2022-08-03T03:57:17;3.97;;;2.80;;
20093;SDS011;10206;48.012;10.030;2022-08-03T03:59:43;3.10;;;2.90;;
20093;SDS011;10206;48.012;10.030;2022-08-03T04:02:10;4.28;;;3.00;;
20093;SDS011;10206;48.012;10.030;2022-08-03T04:04:37;4.43;;;3.10;;
20093;SDS011;10206;48.012;10.030;2022-08-03T04:07:22;3.38;;;2.88;;
20093;SDS011;10206;48.012;10.030;2022-08-03T04:10:12;4.10;;;3.00;;
20093;SDS011;10206;48.012;10.030;2022-08-03T04:13:06;5.85;;;3.15;;
20093;SDS011;10206;48.012;10.030;2022-08-03T04:15:35;4.15;;;3.05;;
20093;SDS011;10206;48.012;10.030;2022-08-03T04:18:03;3.00;;;2.70;;
20093;SDS011;10206;48.012;10.030;2022-08-03T04:20:34;3.17;;;2.83;;
20093;SDS011;10206;48.012;10.030;2022-08-03T04:23:02;3.00;;;2.73;;
20093;SDS011;10206;48.012;10.030;2022-08-03T04:25:31;3.70;;;3.40;;
20093;SDS011;10206;48.012;10.030;2022-08-03T04:28:01;4.67;;;3.03;;
20093;SDS011;10206;48.012;10.030;2022-08-03T04:30:28;3.53;;;2.80;;
20093;SDS011;10206;48.012;10.030;2022-08-03T04:32:56;4.68;;;3.03;;
20093;SDS011;10206;48.012;10.030;2022-08-03T04:35:26;3.93;;;3.37;;
20093;SDS011;10206;48.012;10.030;2022-08-03T04:37:57;3.55;;;3.25;;
20093;SDS011;10206;48.012;10.030;2022-08-03T04:40:27;3.38;;;3.05;;
20093;SDS011;10206;48.012;10.030;2022-08-03T04:42:57;6.78;;;3.55;;
20093;SDS011;10206;48.012;10.030;2022-08-03T04:45:24;3.30;;;3.00;;
20093;SDS011;10206;48.012;10.030;2022-08-03T04:47:52;5.63;;;3.50;;
20093;SDS011;10206;48.012;10.030;2022-08-03T04:50:19;3.00;;;2.70;;
20093;SDS011;10206;48.012;10.030;2022-08-03T04:52:46;5.03;;;3.17;;
20093;SDS011;10206;48.012;10.030;2022-08-03T04:55:26;3.22;;;2.92;;
20093;SDS011;10206;48.012;10.030;2022-08-03T04:57:57;2.80;;;2.35;;
20093;SDS011;10206;48.012;10.030;2022-08-03T05:00:24;5.32;;;2.90;;
20093;SDS011;10206;48.012;10.030;2022-08-03T05:02:51;4.72;;;2.40;;
20093;SDS011;10206;48.012;10.030;2022-08-03T05:05:21;4.40;;;2.72;;
20093;SDS011;10206;48.012;10.030;2022-08-03T05:07:47;3.15;;;2.70;;
20093;SDS011;10206;48.012;10.030;2022-08-03T05:10:14;2.92;;;2.50;;
20093;SDS011;10206;48.012;10.030;2022-08-03T05:12:41;6.50;;;2.78;;
20093;SDS011;10206;48.012;10.030;2022-08-03T05:15:09;4.47;;;2.90;;
20093;SDS011;10206;48.012;10.030;2022-08-03T05:17:35;3.28;;;2.97;;
20093;SDS011;10206;48.012;10.030;2022-08-03T05:20:01;4.20;;;2.60;;
20093;SDS011;10206;48.012;10.030;2022-08-03T05:22:28;4.05;;;2.80;;
20093;SDS011;10206;48.012;10.030;2022-08-03T05:24:54;3.95;;;2.97;;
20093;SDS011;10206;48.012;10.030;2022-08-03T05:27:21;4.03;;;3.17;;
20093;SDS011;10206;48.012;10.030;2022-08-03T05:29:48;3.88;;;3.03;;
20093;SDS011;10206;48.012;10.030;2022-08-03T05:32:14;4.03;;;2.97;;
20093;SDS011;10206;48.012;10.030;2022-08-03T05:34:41;4.65;;;3.42;;
20093;SDS011;10206;48.012;10.030;2022-08-03T05:37:07;3.95;;;3.20;;
20093;SDS011;10206;48.012;10.030;2022-08-03T05:39:34;3.45;;;3.15;;
20093;SDS011;10206;48.012;10.030;2022-08-03T05:42:01;4.65;;;3.42;;
20093;SDS011;10206;48.012;10.030;2022-08-03T05:44:27;5.20;;;3.38;;
20093;SDS011;10206;48.012;10.030;2022-08-03T05:46:53;3.85;;;3.40;;
20093;SDS011;10206;48.012;10.030;2022-08-03T05:49:19;4.38;;;3.60;;
20093;SDS011;10206;48.012;10.030;2022-08-03T05:51:45;4.32;;;3.65;;
20093;SDS011;10206;48.012;10.030;2022-08-03T05:54:12;4.30;;;3.60;;
20093;SDS011;10206;48.012;10.030;2022-08-03T05:56:38;3.83;;;3.40;;
20093;SDS011;10206;48.012;10.030;2022-08-03T05:59:05;3.97;;;3.35;;
20093;SDS011;10206;48.012;10.030;2022-08-03T06:01:31;4.22;;;3.53;;
20093;SDS011;10206;48.012;10.030;2022-08-03T06:03:57;3.45;;;3.08;;
20093;SDS011;10206;48.012;10.030;2022-08-03T06:06:24;5.65;;;3.10;;
20093;SDS011;10206;48.012;10.030;2022-08-03T06:08:50;4.72;;;3.53;;
20093;SDS011;10206;48.012;10.030;2022-08-03T06:11:16;8.02;;;3.50;;
20093;SDS011;10206;48.012;10.030;2022-08-03T06:13:42;3.80;;;3.47;;
20093;SDS011;10206;48.012;10.030;2022-08-03T06:16:09;4.15;;;3.35;;
20093;SDS011;10206;48.012;10.030;2022-08-03T06:18:35;5.10;;;3.40;;
20093;SDS011;10206;48.012;10.030;2022-08-03T06:21:02;4.32;;;3.58;;
20093;SDS011;10206;48.012;10.030;2022-08-03T06:23:28;4.18;;;3.03;;
20093;SDS011;10206;48.012;10.030;2022-08-03T06:25:54;5.65;;;3.08;;
20093;SDS011;10206;48.012;10.030;2022-08-03T06:28:20;3.65;;;3.25;;
20093;SDS011;10206;48.012;10.030;2022-08-03T06:30:46;3.50;;;3.20;;
20093;SDS011;10206;48.012;10.030;2022-08-03T06:33:13;4.75;;;3.10;;
20093;SDS011;10206;48.012;10.030;2022-08-03T06:35:39;3.22;;;2.85;;
20093;SDS011;10206;48.012;10.030;2022-08-03T06:38:05;3.72;;;2.97;;
20093;SDS011;10206;48.012;10.030;2022-08-03T06:40:33;3.88;;;2.80;;
20093;SDS011;10206;48.012;10.030;2022-08-03T06:43:03;4.07;;;3.05;;
20093;SDS011;10206;48.012;10.030;2022-08-03T06:45:31;3.55;;;2.80;;
20093;SDS011;10206;48.012;10.030;2022-08-03T06:48:01;2.90;;;2.70;;
20093;SDS011;10206;48.012;10.030;2022-08-03T06:50:32;4.43;;;3.13;;
20093;SDS011;10206;48.012;10.030;2022-08-03T06:52:59;4.28;;;3.30;;
20093;SDS011;10206;48.012;10.030;2022-08-03T06:55:26;3.13;;;2.50;;
20093;SDS011;10206;48.012;10.030;2022-08-03T06:57:52;3.88;;;2.50;;
20093;SDS011;10206;48.012;10.030;2022-08-03T07:00:19;3.35;;;2.50;;
20093;SDS011;10206;48.012;10.030;2022-08-03T07:02:45;2.28;;;2.15;;
20093;SDS011;10206;48.012;10.030;2022-08-03T07:05:12;2.78;;;2.40;;
20093;SDS011;10206;48.012;10.030;2022-08-03T07:07:38;2.95;;;2.40;;
20093;SDS011;10206;48.012;10.030;2022-08-03T07:10:05;3.20;;;2.80;;
20093;SDS011;10206;48.012;10.030;2022-08-03T07:12:32;2.85;;;2.55;;
20093;SDS011;10206;48.012;10.030;2022-08-03T07:14:59;2.97;;;2.60;;
20093;SDS011;10206;48.012;10.030;2022-08-03T07:17:27;2.25;;;2.10;;
20093;SDS011;10206;48.012;10.030;2022-08-03T07:19:54;3.58;;;2.40;;
20093;SDS011;10206;48.012;10.030;2022-08-03T07:22:21;2.83;;;2.40;;
20093;SDS011;10206;48.012;10.030;2022-08-03T07:24:47;3.92;;;2.38;;
20093;SDS011;10206;48.012;10.030;2022-08-03T07:27:14;2.63;;;2.03;;
20093;SDS011;10206;48.012;10.030;2022-08-03T07:29:40;2.25;;;2.03;;
20093;SDS011;10206;48.012;10.030;2022-08-03T07:32:06;2.40;;;1.60;;
20093;SDS011;10206;48.012;10.030;2022-08-03T07:34:33;2.83;;;1.63;;
20093;SDS011;10206;48.012;10.030;2022-08-03T07:36:59;1.77;;;1.60;;
20093;SDS011;10206;48.012;10.030;2022-08-03T07:39:25;2.00;;;1.80;;
20093;SDS011;10206;48.012;10.030;2022-08-03T07:41:51;1.58;;;1.40;;
20093;SDS011;10206;48.012;10.030;2022-08-03T07:44:18;1.58;;;1.48;;
20093;SDS011;10206;48.012;10.030;2022-08-03T07:46:44;2.70;;;1.55;;
20093;SDS011;10206;48.012;10.030;2022-08-03T07:49:10;1.58;;;1.48;;
20093;SDS011;10206;48.012;10.030;2022-08-03T07:51:36;2.58;;;1.70;;
20093;SDS011;10206;48.012;10.030;2022-08-03T07:54:03;1.77;;;1.50;;
20093;SDS011;10206;48.012;10.030;2022-08-03T07:56:29;1.80;;;1.40;;
20093;SDS011;10206;48.012;10.030;2022-08-03T07:58:56;1.67;;;1.42;;
20093;SDS011;10206;48.012;10.030;2022-08-03T08:01:22;2.70;;;1.90;;
20093;SDS011;10206;48.012;10.030;2022-08-03T08:03:48;1.63;;;1.52;;
20093;SDS011;10206;48.012;10.030;2022-08-03T08:06:15;1.90;;;1.80;;
20093;SDS011;10206;48.012;10.030;2022-08-03T08:08:41;1.88;;;1.75;;
20093;SDS011;10206;48.012;10.030;2022-08-03T08:11:08;2.88;;;1.92;;
20093;SDS011;10206;48.012;10.030;2022-08-03T08:13:34;3.58;;;1.75;;
20093;SDS011;10206;48.012;10.030;2022-08-03T08:16:03;4.07;;;1.88;;
20093;SDS011;10206;48.012;10.030;2022-08-03T08:18:30;1.75;;;1.65;;
20093;SDS011;10206;48.012;10.030;2022-08-03T08:20:56;5.25;;;1.65;;
20093;SDS011;10206;48.012;10.030;2022-08-03T08:23:23;2.67;;;1.60;;
20093;SDS011;10206;48.012;10.030;2022-08-03T08:25:50;2.10;;;1.90;;
20093;SDS011;10206;48.012;10.030;2022-08-03T08:28:17;1.70;;;1.60;;
20093;SDS011;10206;48.012;10.030;2022-08-03T08:30:43;1.70;;;1.60;;
20093;SDS011;10206;48.012;10.030;2022-08-03T08:33:10;1.92;;;1.60;;
20093;SDS011;10206;48.012;10.030;2022-08-03T08:35:36;1.77;;;1.67;;
20093;SDS011;10206;48.012;10.030;2022-08-03T08:38:02;3.25;;;1.65;;
20093;SDS011;10206;48.012;10.030;2022-08-03T08:40:28;2.88;;;1.77;;
20093;SDS011;10206;48.012;10.030;2022-08-03T08:42:54;1.77;;;1.38;;
20093;SDS011;10206;48.012;10.030;2022-08-03T08:45:21;3.17;;;1.73;;
20093;SDS011;10206;48.012;10.030;2022-08-03T08:47:48;1.85;;;1.70;;
20093;SDS011;10206;48.012;10.030;2022-08-03T08:50:18;1.60;;;1.50;;
20093;SDS011;10206;48.012;10.030;2022-08-03T08:52:46;2.35;;;1.50;;
20093;SDS011;10206;48.012;10.030;2022-08-03T08:55:14;1.50;;;1.40;;
20093;SDS011;10206;48.012;10.030;2022-08-03T08:57:49;1.48;;;1.38;;
20093;SDS011;10206;48.012;10.030;2022-08-03T09:00:17;1.60;;;1.50;;
20093;SDS011;10206;48.012;10.030;2022-08-03T09:02:43;3.10;;;1.30;;
20093;SDS011;10206;48.012;10.030;2022-08-03T09:05:14;1.40;;;1.30;;
20093;SDS011;10206;48.012;10.030;2022-08-03T09:07:42;1.50;;;1.40;;
20093;SDS011;10206;48.012;10.030;2022-08-03T09:10:10;1.40;;;1.30;;
20093;SDS011;10206;48.012;10.030;2022-08-03T09:12:41;1.77;;;1.40;;
20093;SDS011;10206;48.012;10.030;2022-08-03T09:15:25;1.63;;;1.42;;
20093;SDS011;10206;48.012;10.030;2022-08-03T09:17:53;1.52;;;1.40;;
20093;SDS011;10206;48.012;10.030;2022-08-03T09:20:21;1.73;;;1.48;;
20093;SDS011;10206;48.012;10.030;2022-08-03T09:22:52;1.30;;;1.20;;
20093;SDS011;10206;48.012;10.030;2022-08-03T09:25:32;1.58;;;1.48;;
20093;SDS011;10206;48.012;10.030;2022-08-03T09:28:10;2.42;;;1.50;;
20093;SDS011;10206;48.012;10.030;2022-08-03T09:30:38;2.75;;;1.48;;
20093;SDS011;10206;48.012;10.030;2022-08-03T09:33:07;1.85;;;1.48;;
20093;SDS011;10206;48.012;10.030;2022-08-03T09:35:47;1.90;;;1.40;;
20093;SDS011;10206;48.012;10.030;2022-08-03T09:40:50;1.40;;;1.30;;
20093;SDS011;10206;48.012;10.030;2022-08-03T09:43:16;2.20;;;1.25;;
20093;SDS011;10206;48.012;10.030;2022-08-03T09:45:43;1.73;;;1.20;;
20093;SDS011;10206;48.012;10.030;2022-08-03T09:50:52;1.60;;;1.30;;
20093;SDS011;10206;48.012;10.030;2022-08-03T09:53:25;1.40;;;1.30;;
20093;SDS011;10206;48.012;10.030;2022-08-03T09:55:52;1.35;;;1.25;;
20093;SDS011;10206;48.012;10.030;2022-08-03T09:58:20;1.90;;;1.27;;
20093;SDS011;10206;48.012;10.030;2022-08-03T10:03:21;1.83;;;1.52;;
20093;SDS011;10206;48.012;10.030;2022-08-03T10:05:48;1.52;;;1.25;;
20093;SDS011;10206;48.012;10.030;2022-08-03T10:08:15;1.30;;;1.20;;
20093;SDS011;10206;48.012;10.030;2022-08-03T10:10:43;1.35;;;1.23;;
20093;SDS011;10206;48.012;10.030;2022-08-03T10:13:15;2.58;;;1.48;;
20093;SDS011;10206;48.012;10.030;2022-08-03T10:15:42;1.40;;;1.30;;
20093;SDS011;10206;48.012;10.030;2022-08-03T10:18:09;2.13;;;1.15;;
20093;SDS011;10206;48.012;10.030;2022-08-03T10:20:36;1.30;;;1.17;;
20093;SDS011;10206;48.012;10.030;2022-08-03T10:23:09;4.10;;;1.30;;
20093;SDS011;10206;48.012;10.030;2022-08-03T10:25:37;1.52;;;1.20;;
20093;SDS011;10206;48.012;10.030;2022-08-03T10:28:05;1.33;;;1.10;;
20093;SDS011;10206;48.012;10.030;2022-08-03T10:30:36;1.48;;;1.20;;
20093;SDS011;10206;48.012;10.030;2022-08-03T10:33:09;1.35;;;1.20;;
20093;SDS011;10206;48.012;10.030;2022-08-03T10:35:53;1.25;;;1.15;;
20093;SDS011;10206;48.012;10.030;2022-08-03T10:38:42;2.05;;;1.42;;
20093;SDS011;10206;48.012;10.030;2022-08-03T10:41:12;1.40;;;1.30;;
20093;SDS011;10206;48.012;10.030;2022-08-03T10:43:52;1.27;;;1.10;;
20093;SDS011;10206;48.012;10.030;2022-08-03T10:46:34;1.35;;;1.17;;
20093;SDS011;10206;48.012;10.030;2022-08-03T10:49:03;2.35;;;1.30;;
20093;SDS011;10206;48.012;10.030;2022-08-03T10:51:31;1.55;;;1.45;;
20093;SDS011;10206;48.012;10.030;2022-08-03T10:53:58;1.50;;;1.20;;
20093;SDS011;10206;48.012;10.030;2022-08-03T10:56:45;1.60;;;1.05;;
20093;SDS011;10206;48.012;10.030;2022-08-03T11:02:12;1.30;;;1.02;;
20093;SDS011;10206;48.012;10.030;2022-08-03T11:04:39;1.20;;;1.20;;
20093;SDS011;10206;48.012;10.030;2022-08-03T11:09:51;2.15;;;1.05;;
20093;SDS011;10206;48.012;10.030;2022-08-03T11:12:29;2.08;;;1.13;;
20093;SDS011;10206;48.012;10.030;2022-08-03T11:14:57;2.42;;;1.08;;
20093;SDS011;10206;48.012;10.030;2022-08-03T11:17:26;2.15;;;1.20;;
20093;SDS011;10206;48.012;10.030;2022-08-03T11:19:52;1.35;;;1.25;;
20093;SDS011;10206;48.012;10.030;2022-08-03T11:22:19;1.48;;;1.10;;
20093;SDS011;10206;48.012;10.030;2022-08-03T11:27:21;1.00;;;1.00;;
20093;SDS011;10206;48.012;10.030;2022-08-03T11:29:58;1.92;;;1.20;;
20093;SDS011;10206;48.012;10.030;2022-08-03T11:45:56;1.42;;;1.15;;
20093;SDS011;10206;48.012;10.030;2022-08-03T11:48:26;1.30;;;1.20;;
20093;SDS011;10206;48.012;10.030;2022-08-03T11:51:01;1.50;;;1.40;;
20093;SDS011;10206;48.012;10.030;2022-08-03T11:53:28;3.63;;;1.30;;
20093;SDS011;10206;48.012;10.030;2022-08-03T11:55:59;2.22;;;1.20;;
20093;SDS011;10206;48.012;10.030;2022-08-03T11:58:26;1.42;;;1.20;;
20093;SDS011;10206;48.012;10.030;2022-08-03T12:01:02;1.50;;;1.40;;
20093;SDS011;10206;48.012;10.030;2022-08-03T12:03:31;2.63;;;1.42;;
20093;SDS011;10206;48.012;10.030;2022-08-03T12:05:59;1.30;;;1.20;;
20093;SDS011;10206;48.012;10.030;2022-08-03T12:10:53;2.58;;;1.30;;
20093;SDS011;10206;48.012;10.030;2022-08-03T12:13:21;1.48;;;1.33;;
20093;SDS011;10206;48.012;10.030;2022-08-03T12:15:51;1.50;;;1.30;;
20093;SDS011;10206;48.012;10.030;2022-08-03T12:18:19;1.83;;;1.60;;
20093;SDS011;10206;48.012;10.030;2022-08-03T12:20:46;1.30;;;1.20;;
20093;SDS011;10206;48.012;10.030;2022-08-03T12:23:14;1.35;;;1.10;;
20093;SDS011;10206;48.012;10.030;2022-08-03T12:25:41;2.55;;;1.10;;
20093;SDS011;10206;48.012;10.030;2022-08-03T12:28:10;2.70;;;1.40;;
20093;SDS011;10206;48.012;10.030;2022-08-03T12:30:48;1.13;;;1.13;;
20093;SDS011;10206;48.012;10.030;2022-08-03T12:33:23;2.05;;;1.13;;
20093;SDS011;10206;48.012;10.030;2022-08-03T12:38:34;1.48;;;1.38;;
20093;SDS011;10206;48.012;10.030;2022-08-03T12:41:05;3.58;;;1.35;;
20093;SDS011;10206;48.012;10.030;2022-08-03T12:43:35;1.45;;;1.35;;
20093;SDS011;10206;48.012;10.030;2022-08-03T12:46:14;1.17;;;1.08;;
20093;SDS011;10206;48.012;10.030;2022-08-03T12:48:56;1.50;;;1.40;;
20093;SDS011;10206;48.012;10.030;2022-08-03T12:51:22;1.30;;;1.10;;
20093;SDS011;10206;48.012;10.030;2022-08-03T12:53:54;1.40;;;1.30;;
20093;SDS011;10206;48.012;10.030;2022-08-03T12:56:22;1.27;;;1.20;;
20093;SDS011;10206;48.012;10.030;2022-08-03T12:58:49;1.35;;;1.13;;
20093;SDS011;10206;48.012;10.030;2022-08-03T13:01:15;1.42;;;1.33;;
20093;SDS011;10206;48.012;10.030;2022-08-03T13:03:42;1.38;;;1.27;;
20093;SDS011;10206;48.012;10.030;2022-08-03T13:06:15;1.40;;;1.30;;
20093;SDS011;10206;48.012;10.030;2022-08-03T13:08:42;2.28;;;1.50;;
20093;SDS011;10206;48.012;10.030;2022-08-03T13:11:21;1.30;;;1.20;;
20093;SDS011;10206;48.012;10.030;2022-08-03T13:13:50;2.35;;;1.10;;
20093;SDS011;10206;48.012;10.030;2022-08-03T13:16:17;2.70;;;1.30;;
20093;SDS011;10206;48.012;10.030;2022-08-03T13:18:46;1.33;;;1.23;;
20093;SDS011;10206;48.012;10.030;2022-08-03T13:21:16;1.45;;;1.30;;
20093;SDS011;10206;48.012;10.030;2022-08-03T13:23:44;2.00;;;1.40;;
20093;SDS011;10206;48.012;10.030;2022-08-03T13:26:11;2.63;;;1.20;;
20093;SDS011;10206;48.012;10.030;2022-08-03T13:28:38;3.28;;;1.55;;
20093;SDS011;10206;48.012;10.030;2022-08-03T13:31:05;1.10;;;1.10;;
20093;SDS011;10206;48.012;10.030;2022-08-03T13:33:31;3.00;;;1.30;;
20093;SDS011;10206;48.012;10.030;2022-08-03T13:35:57;1.50;;;1.40;;
20093;SDS011;10206;48.012;10.030;2022-08-03T13:38:24;1.55;;;1.05;;
20093;SDS011;10206;48.012;10.030;2022-08-03T13:40:50;1.30;;;1.20;;
20093;SDS011;10206;48.012;10.030;2022-08-03T13:43:19;1.13;;;1.10;;
20093;SDS011;10206;48.012;10.030;2022-08-03T13:45:46;1.33;;;1.20;;
20093;SDS011;10206;48.012;10.030;2022-08-03T13:48:12;1.35;;;1.25;;
20093;SDS011;10206;48.012;10.030;2022-08-03T13:50:38;3.08;;;1.20;;
20093;SDS011;10206;48.012;10.030;2022-08-03T13:53:04;2.35;;;1.27;;
20093;SDS011;10206;48.012;10.030;2022-08-03T13:55:31;1.50;;;1.23;;
20093;SDS011;10206;48.012;10.030;2022-08-03T13:57:57;5.95;;;1.38;;
20093;SDS011;10206;48.012;10.030;2022-08-03T14:00:23;1.60;;;1.27;;
20093;SDS011;10206;48.012;10.030;2022-08-03T14:02:50;1.85;;;1.33;;
20093;SDS011;10206;48.012;10.030;2022-08-03T14:05:16;2.80;;;1.45;;
20093;SDS011;10206;48.012;10.030;2022-08-03T14:07:43;1.52;;;1.40;;
20093;SDS011;10206;48.012;10.030;2022-08-03T14:10:09;2.28;;;1.52;;
20093;SDS011;10206;48.012;10.030;2022-08-03T14:12:35;1.20;;;1.10;;
20093;SDS011;10206;48.012;10.030;2022-08-03T14:15:01;2.22;;;1.30;;
20093;SDS011;10206;48.012;10.030;2022-08-03T14:17:28;1.67;;;1.35;;
20093;SDS011;10206;48.012;10.030;2022-08-03T14:19:54;1.90;;;1.27;;
20093;SDS011;10206;48.012;10.030;2022-08-03T14:22:20;4.05;;;1.50;;
20093;SDS011;10206;48.012;10.030;2022-08-03T14:24:46;1.38;;;1.27;;
20093;SDS011;10206;48.012;10.030;2022-08-03T14:27:12;2.05;;;1.65;;
20093;SDS011;10206;48.012;10.030;2022-08-03T14:29:38;2.33;;;1.38;;
20093;SDS011;10206;48.012;10.030;2022-08-03T14:32:04;1.63;;;1.50;;
20093;SDS011;10206;48.012;10.030;2022-08-03T14:34:31;1.50;;;1.02;;
20093;SDS011;10206;48.012;10.030;2022-08-03T14:36:57;1.73;;;1.52;;
20093;SDS011;10206;48.012;10.030;2022-08-03T14:39:23;1.95;;;1.20;;
20093;SDS011;10206;48.012;10.030;2022-08-03T14:41:49;1.27;;;1.17;;
20093;SDS011;10206;48.012;10.030;2022-08-03T14:44:15;2.20;;;1.17;;
20093;SDS011;10206;48.012;10.030;2022-08-03T14:46:42;1.58;;;1.33;;
20093;SDS011;10206;48.012;10.030;2022-08-03T14:49:08;3.47;;;1.30;;
20093;SDS011;10206;48.012;10.030;2022-08-03T14:51:34;1.50;;;1.40;;
20093;SDS011;10206;48.012;10.030;2022-08-03T14:54:00;1.90;;;1.40;;
20093;SDS011;10206;48.012;10.030;2022-08-03T14:56:26;3.28;;;1.50;;
20093;SDS011;10206;48.012;10.030;2022-08-03T14:58:53;1.65;;;1.55;;
20093;SDS011;10206;48.012;10.030;2022-08-03T15:01:19;1.70;;;1.20;;
20093;SDS011;10206;48.012;10.030;2022-08-03T15:03:45;4.45;;;1.40;;
20093;SDS011;10206;48.012;10.030;2022-08-03T15:06:12;2.92;;;1.30;;
20093;SDS011;10206;48.012;10.030;2022-08-03T15:08:38;1.30;;;1.20;;
20093;SDS011;10206;48.012;10.030;2022-08-03T15:11:04;2.25;;;1.40;;
20093;SDS011;10206;48.012;10.030;2022-08-03T15:13:31;1.77;;;1.30;;
20093;SDS011;10206;48.012;10.030;2022-08-03T15:15:57;2.40;;;1.55;;
20093;SDS011;10206;48.012;10.030;2022-08-03T15:18:23;1.25;;;1.15;;
20093;SDS011;10206;48.012;10.030;2022-08-03T15:20:49;1.48;;;1.38;;
20093;SDS011;10206;48.012;10.030;2022-08-03T15:23:16;3.00;;;1.50;;
20093;SDS011;10206;48.012;10.030;2022-08-03T15:25:43;1.83;;;1.58;;
20093;SDS011;10206;48.012;10.030;2022-08-03T15:28:10;2.25;;;1.15;;
20093;SDS011;10206;48.012;10.030;2022-08-03T15:30:36;1.73;;;1.23;;